sensor_id;sensor_type;location;lat;lon;timestamp;P1;durP1;ratioP1;P2;durP2;ratioP2
72569;SDS011;60594;50.204;8.844;2023-06-14T00:01:54;8.45;;;4.50;;
72569;SDS011;60594;50.204;8.844;2023-06-14T00:04:21;7.45;;;4.85;;
72569;SDS011;60594;50.204;8.844;2023-06-14T00:06:51;7.03;;;4.80;;
72569;SDS011;60594;50.204;8.844;2023-06-14T00:09:18;6.05;;;3.80;;
72569;SDS011;60594;50.204;8.844;2023-06-14T00:11:45;6.18;;;4.20;;
72569;SDS011;60594;50.204;8.844;2023-06-14T00:14:11;5.63;;;4.25;;
72569;SDS011;60594;50.204;8.844;2023-06-14T00:16:39;6.95;;;4.40;;
72569;SDS011;60594;50.204;8.844;2023-06-14T00:19:08;8.30;;;4.60;;
72569;SDS011;60594;50.204;8.844;2023-06-14T00:21:36;6.32;;;4.32;;
72569;SDS011;60594;50.204;8.844;2023-06-14T00:24:04;6.55;;;4.38;;
72569;SDS011;60594;50.204;8.844;2023-06-14T00:26:31;7.97;;;4.68;;
72569;SDS011;60594;50.204;8.844;2023-06-14T00:28:57;6.32;;;4.22;;
72569;SDS011;60594;50.204;8.844;2023-06-14T00:31:25;7.90;;;4.57;;
72569;SDS011;60594;50.204;8.844;2023-06-14T00:33:54;8.50;;;5.00;;
72569;SDS011;60594;50.204;8.844;2023-06-14T00:36:20;6.22;;;4.25;;
72569;SDS011;60594;50.204;8.844;2023-06-14T00:38:46;7.53;;;4.82;;
72569;SDS011;60594;50.204;8.844;2023-06-14T00:41:13;6.30;;;4.57;;
72569;SDS011;60594;50.204;8.844;2023-06-14T00:43:42;6.00;;;4.40;;
72569;SDS011;60594;50.204;8.844;2023-06-14T00:46:09;7.30;;;4.75;;
72569;SDS011;60594;50.204;8.844;2023-06-14T00:48:36;7.57;;;4.95;;
72569;SDS011;60594;50.204;8.844;2023-06-14T00:51:04;7.10;;;4.75;;
72569;SDS011;60594;50.204;8.844;2023-06-14T00:53:32;6.40;;;4.60;;
72569;SDS011;60594;50.204;8.844;2023-06-14T00:56:02;7.70;;;4.85;;
72569;SDS011;60594;50.204;8.844;2023-06-14T00:58:29;7.85;;;4.70;;
72569;SDS011;60594;50.204;8.844;2023-06-14T01:00:56;6.72;;;5.03;;
72569;SDS011;60594;50.204;8.844;2023-06-14T01:03:42;6.25;;;3.83;;
72569;SDS011;60594;50.204;8.844;2023-06-14T01:09:24;6.40;;;4.90;;
72569;SDS011;60594;50.204;8.844;2023-06-14T01:12:01;7.20;;;4.45;;
72569;SDS011;60594;50.204;8.844;2023-06-14T01:14:31;6.70;;;4.28;;
72569;SDS011;60594;50.204;8.844;2023-06-14T01:17:00;6.95;;;4.40;;
72569;SDS011;60594;50.204;8.844;2023-06-14T01:19:28;7.38;;;4.20;;
72569;SDS011;60594;50.204;8.844;2023-06-14T01:21:55;6.78;;;4.50;;
72569;SDS011;60594;50.204;8.844;2023-06-14T01:24:22;7.63;;;4.28;;
72569;SDS011;60594;50.204;8.844;2023-06-14T01:26:53;8.93;;;4.30;;
72569;SDS011;60594;50.204;8.844;2023-06-14T01:29:27;7.03;;;4.10;;
72569;SDS011;60594;50.204;8.844;2023-06-14T01:31:59;5.88;;;4.10;;
72569;SDS011;60594;50.204;8.844;2023-06-14T01:34:30;6.43;;;4.22;;
72569;SDS011;60594;50.204;8.844;2023-06-14T01:36:57;7.35;;;4.72;;
72569;SDS011;60594;50.204;8.844;2023-06-14T01:39:27;6.45;;;4.32;;
72569;SDS011;60594;50.204;8.844;2023-06-14T01:41:55;5.85;;;4.13;;
72569;SDS011;60594;50.204;8.844;2023-06-14T01:44:23;6.18;;;4.45;;
72569;SDS011;60594;50.204;8.844;2023-06-14T01:46:51;6.13;;;4.43;;
72569;SDS011;60594;50.204;8.844;2023-06-14T01:49:17;5.95;;;4.32;;
72569;SDS011;60594;50.204;8.844;2023-06-14T01:51:44;7.25;;;5.03;;
72569;SDS011;60594;50.204;8.844;2023-06-14T01:54:10;7.18;;;4.20;;
72569;SDS011;60594;50.204;8.844;2023-06-14T01:56:38;7.13;;;4.93;;
72569;SDS011;60594;50.204;8.844;2023-06-14T01:59:05;6.15;;;4.60;;
72569;SDS011;60594;50.204;8.844;2023-06-14T02:01:33;7.25;;;4.72;;
72569;SDS011;60594;50.204;8.844;2023-06-14T02:04:01;6.10;;;4.57;;
72569;SDS011;60594;50.204;8.844;2023-06-14T02:06:28;7.38;;;4.95;;
72569;SDS011;60594;50.204;8.844;2023-06-14T02:08:54;6.95;;;4.57;;
72569;SDS011;60594;50.204;8.844;2023-06-14T02:11:21;6.53;;;4.50;;
72569;SDS011;60594;50.204;8.844;2023-06-14T02:13:47;6.97;;;4.70;;
72569;SDS011;60594;50.204;8.844;2023-06-14T02:16:14;7.40;;;4.43;;
72569;SDS011;60594;50.204;8.844;2023-06-14T02:18:40;6.20;;;4.35;;
72569;SDS011;60594;50.204;8.844;2023-06-14T02:21:07;6.00;;;4.38;;
72569;SDS011;60594;50.204;8.844;2023-06-14T02:23:33;7.00;;;4.05;;
72569;SDS011;60594;50.204;8.844;2023-06-14T02:26:00;8.55;;;4.30;;
72569;SDS011;60594;50.204;8.844;2023-06-14T02:28:26;6.82;;;4.20;;
72569;SDS011;60594;50.204;8.844;2023-06-14T02:30:53;7.20;;;4.32;;
72569;SDS011;60594;50.204;8.844;2023-06-14T02:33:23;7.63;;;4.70;;
72569;SDS011;60594;50.204;8.844;2023-06-14T02:35:49;6.20;;;4.25;;
72569;SDS011;60594;50.204;8.844;2023-06-14T02:38:16;5.55;;;4.00;;
72569;SDS011;60594;50.204;8.844;2023-06-14T02:40:42;7.75;;;4.00;;
72569;SDS011;60594;50.204;8.844;2023-06-14T02:43:09;7.35;;;3.90;;
72569;SDS011;60594;50.204;8.844;2023-06-14T02:45:35;7.68;;;4.80;;
72569;SDS011;60594;50.204;8.844;2023-06-14T02:48:02;6.40;;;4.43;;
72569;SDS011;60594;50.204;8.844;2023-06-14T02:50:29;6.88;;;4.13;;
72569;SDS011;60594;50.204;8.844;2023-06-14T02:52:56;8.13;;;4.10;;
72569;SDS011;60594;50.204;8.844;2023-06-14T02:55:23;6.57;;;4.47;;
72569;SDS011;60594;50.204;8.844;2023-06-14T02:57:49;7.00;;;4.40;;
72569;SDS011;60594;50.204;8.844;2023-06-14T03:00:17;6.75;;;4.40;;
72569;SDS011;60594;50.204;8.844;2023-06-14T03:02:46;6.68;;;4.85;;
72569;SDS011;60594;50.204;8.844;2023-06-14T03:05:13;6.75;;;4.38;;
72569;SDS011;60594;50.204;8.844;2023-06-14T03:07:40;8.00;;;4.47;;
72569;SDS011;60594;50.204;8.844;2023-06-14T03:10:08;6.15;;;4.05;;
72569;SDS011;60594;50.204;8.844;2023-06-14T03:12:40;7.70;;;4.53;;
72569;SDS011;60594;50.204;8.844;2023-06-14T03:15:08;5.65;;;4.07;;
72569;SDS011;60594;50.204;8.844;2023-06-14T03:17:38;7.22;;;3.95;;
72569;SDS011;60594;50.204;8.844;2023-06-14T03:20:06;6.60;;;4.57;;
72569;SDS011;60594;50.204;8.844;2023-06-14T03:22:34;7.20;;;4.53;;
72569;SDS011;60594;50.204;8.844;2023-06-14T03:25:01;5.43;;;3.90;;
72569;SDS011;60594;50.204;8.844;2023-06-14T03:27:31;6.70;;;4.45;;
72569;SDS011;60594;50.204;8.844;2023-06-14T03:29:58;6.95;;;4.60;;
72569;SDS011;60594;50.204;8.844;2023-06-14T03:32:24;6.18;;;4.10;;
72569;SDS011;60594;50.204;8.844;2023-06-14T03:34:51;6.00;;;4.40;;
72569;SDS011;60594;50.204;8.844;2023-06-14T03:37:22;6.18;;;3.95;;
72569;SDS011;60594;50.204;8.844;2023-06-14T03:39:48;7.78;;;4.68;;
72569;SDS011;60594;50.204;8.844;2023-06-14T03:42:21;6.55;;;4.18;;
72569;SDS011;60594;50.204;8.844;2023-06-14T03:44:49;8.02;;;4.28;;
72569;SDS011;60594;50.204;8.844;2023-06-14T03:47:16;6.93;;;4.07;;
72569;SDS011;60594;50.204;8.844;2023-06-14T03:49:43;6.90;;;4.35;;
72569;SDS011;60594;50.204;8.844;2023-06-14T03:52:10;6.32;;;4.15;;
72569;SDS011;60594;50.204;8.844;2023-06-14T03:54:38;6.93;;;4.60;;
72569;SDS011;60594;50.204;8.844;2023-06-14T03:57:05;6.50;;;4.32;;
72569;SDS011;60594;50.204;8.844;2023-06-14T03:59:32;6.47;;;4.47;;
72569;SDS011;60594;50.204;8.844;2023-06-14T04:01:58;6.32;;;4.47;;
72569;SDS011;60594;50.204;8.844;2023-06-14T04:04:25;7.68;;;4.53;;
72569;SDS011;60594;50.204;8.844;2023-06-14T04:06:55;7.05;;;3.80;;
72569;SDS011;60594;50.204;8.844;2023-06-14T04:09:27;6.55;;;4.00;;
72569;SDS011;60594;50.204;8.844;2023-06-14T04:11:53;8.32;;;4.15;;
72569;SDS011;60594;50.204;8.844;2023-06-14T04:14:20;6.40;;;4.20;;
72569;SDS011;60594;50.204;8.844;2023-06-14T04:16:46;6.95;;;4.55;;
72569;SDS011;60594;50.204;8.844;2023-06-14T04:19:16;8.45;;;4.10;;
72569;SDS011;60594;50.204;8.844;2023-06-14T04:21:42;6.13;;;4.13;;
72569;SDS011;60594;50.204;8.844;2023-06-14T04:24:09;6.13;;;4.40;;
72569;SDS011;60594;50.204;8.844;2023-06-14T04:26:45;6.53;;;4.40;;
72569;SDS011;60594;50.204;8.844;2023-06-14T04:29:15;6.00;;;4.18;;
72569;SDS011;60594;50.204;8.844;2023-06-14T04:31:43;5.25;;;3.88;;
72569;SDS011;60594;50.204;8.844;2023-06-14T04:36:44;7.88;;;4.30;;
72569;SDS011;60594;50.204;8.844;2023-06-14T04:39:16;7.00;;;4.13;;
72569;SDS011;60594;50.204;8.844;2023-06-14T04:41:44;8.05;;;4.47;;
72569;SDS011;60594;50.204;8.844;2023-06-14T04:44:11;6.68;;;4.45;;
72569;SDS011;60594;50.204;8.844;2023-06-14T04:46:42;6.50;;;4.10;;
72569;SDS011;60594;50.204;8.844;2023-06-14T04:49:22;7.47;;;4.95;;
72569;SDS011;60594;50.204;8.844;2023-06-14T04:51:49;6.95;;;4.40;;
72569;SDS011;60594;50.204;8.844;2023-06-14T04:54:23;6.88;;;4.80;;
72569;SDS011;60594;50.204;8.844;2023-06-14T04:56:53;7.18;;;4.07;;
72569;SDS011;60594;50.204;8.844;2023-06-14T04:59:23;7.28;;;3.75;;
72569;SDS011;60594;50.204;8.844;2023-06-14T05:01:50;6.50;;;3.95;;
72569;SDS011;60594;50.204;8.844;2023-06-14T05:04:19;6.75;;;4.72;;
72569;SDS011;60594;50.204;8.844;2023-06-14T05:06:47;6.43;;;4.55;;
72569;SDS011;60594;50.204;8.844;2023-06-14T05:09:15;6.13;;;4.25;;
72569;SDS011;60594;50.204;8.844;2023-06-14T05:11:44;8.02;;;4.45;;
72569;SDS011;60594;50.204;8.844;2023-06-14T05:14:11;6.78;;;4.22;;
72569;SDS011;60594;50.204;8.844;2023-06-14T05:16:38;5.63;;;4.03;;
72569;SDS011;60594;50.204;8.844;2023-06-14T05:19:06;7.38;;;4.53;;
72569;SDS011;60594;50.204;8.844;2023-06-14T05:21:33;7.50;;;4.38;;
72569;SDS011;60594;50.204;8.844;2023-06-14T05:24:00;6.32;;;4.13;;
72569;SDS011;60594;50.204;8.844;2023-06-14T05:26:27;6.80;;;4.40;;
72569;SDS011;60594;50.204;8.844;2023-06-14T05:28:56;7.45;;;4.40;;
72569;SDS011;60594;50.204;8.844;2023-06-14T05:31:24;6.20;;;4.30;;
72569;SDS011;60594;50.204;8.844;2023-06-14T05:33:52;7.03;;;4.68;;
72569;SDS011;60594;50.204;8.844;2023-06-14T05:36:19;6.95;;;4.20;;
72569;SDS011;60594;50.204;8.844;2023-06-14T05:41:13;7.38;;;4.00;;
72569;SDS011;60594;50.204;8.844;2023-06-14T05:43:40;7.40;;;4.25;;
72569;SDS011;60594;50.204;8.844;2023-06-14T05:46:06;6.07;;;4.38;;
72569;SDS011;60594;50.204;8.844;2023-06-14T05:48:33;8.00;;;4.50;;
72569;SDS011;60594;50.204;8.844;2023-06-14T05:50:59;7.30;;;4.75;;
72569;SDS011;60594;50.204;8.844;2023-06-14T05:53:26;7.90;;;4.60;;
72569;SDS011;60594;50.204;8.844;2023-06-14T05:55:53;7.13;;;4.68;;
72569;SDS011;60594;50.204;8.844;2023-06-14T05:58:21;9.13;;;5.05;;
72569;SDS011;60594;50.204;8.844;2023-06-14T06:00:48;7.72;;;4.95;;
72569;SDS011;60594;50.204;8.844;2023-06-14T06:03:14;6.88;;;4.57;;
72569;SDS011;60594;50.204;8.844;2023-06-14T06:05:41;6.70;;;4.63;;
72569;SDS011;60594;50.204;8.844;2023-06-14T06:08:08;7.63;;;4.68;;
72569;SDS011;60594;50.204;8.844;2023-06-14T06:10:35;7.45;;;4.30;;
72569;SDS011;60594;50.204;8.844;2023-06-14T06:13:30;6.78;;;4.32;;
72569;SDS011;60594;50.204;8.844;2023-06-14T06:15:57;9.43;;;4.60;;
72569;SDS011;60594;50.204;8.844;2023-06-14T06:18:23;5.53;;;3.75;;
72569;SDS011;60594;50.204;8.844;2023-06-14T06:20:49;7.32;;;4.15;;
72569;SDS011;60594;50.204;8.844;2023-06-14T06:23:16;6.07;;;4.10;;
72569;SDS011;60594;50.204;8.844;2023-06-14T06:25:43;5.53;;;4.20;;
72569;SDS011;60594;50.204;8.844;2023-06-14T06:28:09;6.00;;;3.90;;
72569;SDS011;60594;50.204;8.844;2023-06-14T06:30:36;6.32;;;3.65;;
72569;SDS011;60594;50.204;8.844;2023-06-14T06:33:02;6.10;;;3.28;;
72569;SDS011;60594;50.204;8.844;2023-06-14T06:35:29;5.03;;;3.42;;
72569;SDS011;60594;50.204;8.844;2023-06-14T06:37:56;6.47;;;3.22;;
72569;SDS011;60594;50.204;8.844;2023-06-14T06:40:23;6.10;;;3.10;;
72569;SDS011;60594;50.204;8.844;2023-06-14T06:42:50;4.55;;;2.80;;
72569;SDS011;60594;50.204;8.844;2023-06-14T06:45:18;5.72;;;3.00;;
72569;SDS011;60594;50.204;8.844;2023-06-14T06:47:45;7.65;;;3.40;;
72569;SDS011;60594;50.204;8.844;2023-06-14T06:50:11;4.72;;;3.10;;
72569;SDS011;60594;50.204;8.844;2023-06-14T06:52:37;6.97;;;3.15;;
72569;SDS011;60594;50.204;8.844;2023-06-14T06:55:04;5.35;;;2.85;;
72569;SDS011;60594;50.204;8.844;2023-06-14T06:57:31;5.20;;;2.85;;
72569;SDS011;60594;50.204;8.844;2023-06-14T06:59:57;4.07;;;2.70;;
72569;SDS011;60594;50.204;8.844;2023-06-14T07:02:24;4.80;;;3.03;;
72569;SDS011;60594;50.204;8.844;2023-06-14T07:04:50;5.38;;;2.95;;
72569;SDS011;60594;50.204;8.844;2023-06-14T07:07:16;6.72;;;2.90;;
72569;SDS011;60594;50.204;8.844;2023-06-14T07:09:43;5.65;;;2.80;;
72569;SDS011;60594;50.204;8.844;2023-06-14T07:12:10;6.40;;;2.88;;
72569;SDS011;60594;50.204;8.844;2023-06-14T07:14:38;4.05;;;2.70;;
72569;SDS011;60594;50.204;8.844;2023-06-14T07:17:04;4.15;;;2.75;;
72569;SDS011;60594;50.204;8.844;2023-06-14T07:19:31;4.03;;;2.40;;
72569;SDS011;60594;50.204;8.844;2023-06-14T07:21:59;4.72;;;2.95;;
72569;SDS011;60594;50.204;8.844;2023-06-14T07:24:25;4.90;;;3.22;;
72569;SDS011;60594;50.204;8.844;2023-06-14T07:26:54;4.65;;;2.70;;
72569;SDS011;60594;50.204;8.844;2023-06-14T07:29:22;6.03;;;2.92;;
72569;SDS011;60594;50.204;8.844;2023-06-14T07:31:48;6.68;;;3.70;;
72569;SDS011;60594;50.204;8.844;2023-06-14T07:34:15;4.22;;;2.58;;
72569;SDS011;60594;50.204;8.844;2023-06-14T07:36:41;5.15;;;2.90;;
72569;SDS011;60594;50.204;8.844;2023-06-14T07:39:10;4.95;;;2.58;;
72569;SDS011;60594;50.204;8.844;2023-06-14T07:41:37;3.67;;;2.05;;
72569;SDS011;60594;50.204;8.844;2023-06-14T07:44:03;4.55;;;2.20;;
72569;SDS011;60594;50.204;8.844;2023-06-14T07:46:30;4.28;;;2.35;;
72569;SDS011;60594;50.204;8.844;2023-06-14T07:48:56;4.05;;;2.10;;
72569;SDS011;60594;50.204;8.844;2023-06-14T07:51:23;4.05;;;2.28;;
72569;SDS011;60594;50.204;8.844;2023-06-14T07:53:49;3.90;;;2.45;;
72569;SDS011;60594;50.204;8.844;2023-06-14T07:56:16;3.95;;;2.20;;
72569;SDS011;60594;50.204;8.844;2023-06-14T07:58:42;3.80;;;2.15;;
72569;SDS011;60594;50.204;8.844;2023-06-14T08:01:09;5.20;;;2.58;;
72569;SDS011;60594;50.204;8.844;2023-06-14T08:03:36;3.47;;;2.00;;
72569;SDS011;60594;50.204;8.844;2023-06-14T08:06:03;4.03;;;2.10;;
72569;SDS011;60594;50.204;8.844;2023-06-14T08:08:30;3.75;;;2.38;;
72569;SDS011;60594;50.204;8.844;2023-06-14T08:10:57;5.70;;;2.45;;
72569;SDS011;60594;50.204;8.844;2023-06-14T08:13:23;3.80;;;2.05;;
72569;SDS011;60594;50.204;8.844;2023-06-14T08:15:49;5.78;;;2.13;;
72569;SDS011;60594;50.204;8.844;2023-06-14T08:18:16;4.85;;;2.17;;
72569;SDS011;60594;50.204;8.844;2023-06-14T08:20:42;5.45;;;2.60;;
72569;SDS011;60594;50.204;8.844;2023-06-14T08:23:10;4.18;;;2.10;;
72569;SDS011;60594;50.204;8.844;2023-06-14T08:25:37;4.95;;;2.35;;
72569;SDS011;60594;50.204;8.844;2023-06-14T08:28:04;4.15;;;2.17;;
72569;SDS011;60594;50.204;8.844;2023-06-14T08:30:30;4.00;;;2.38;;
72569;SDS011;60594;50.204;8.844;2023-06-14T08:32:57;3.90;;;2.13;;
72569;SDS011;60594;50.204;8.844;2023-06-14T08:35:24;3.42;;;2.25;;
72569;SDS011;60594;50.204;8.844;2023-06-14T08:38:03;4.15;;;2.63;;
72569;SDS011;60594;50.204;8.844;2023-06-14T08:40:30;4.97;;;2.53;;
72569;SDS011;60594;50.204;8.844;2023-06-14T08:42:57;4.00;;;2.50;;
72569;SDS011;60594;50.204;8.844;2023-06-14T08:45:24;4.00;;;2.55;;
72569;SDS011;60594;50.204;8.844;2023-06-14T08:47:51;4.50;;;2.30;;
72569;SDS011;60594;50.204;8.844;2023-06-14T08:50:21;4.90;;;2.33;;
72569;SDS011;60594;50.204;8.844;2023-06-14T08:52:48;4.50;;;2.35;;
72569;SDS011;60594;50.204;8.844;2023-06-14T08:55:21;6.32;;;2.50;;
72569;SDS011;60594;50.204;8.844;2023-06-14T08:57:54;4.07;;;2.70;;
72569;SDS011;60594;50.204;8.844;2023-06-14T09:00:24;5.20;;;2.63;;
72569;SDS011;60594;50.204;8.844;2023-06-14T09:02:52;4.75;;;2.67;;
72569;SDS011;60594;50.204;8.844;2023-06-14T09:05:26;4.50;;;2.25;;
72569;SDS011;60594;50.204;8.844;2023-06-14T09:07:54;3.78;;;2.00;;
72569;SDS011;60594;50.204;8.844;2023-06-14T09:10:22;4.43;;;2.47;;
72569;SDS011;60594;50.204;8.844;2023-06-14T09:12:49;4.57;;;2.38;;
72569;SDS011;60594;50.204;8.844;2023-06-14T09:15:16;4.22;;;2.40;;
72569;SDS011;60594;50.204;8.844;2023-06-14T09:17:43;4.32;;;2.40;;
72569;SDS011;60594;50.204;8.844;2023-06-14T09:20:10;4.40;;;2.60;;
72569;SDS011;60594;50.204;8.844;2023-06-14T09:22:37;5.50;;;2.35;;
72569;SDS011;60594;50.204;8.844;2023-06-14T09:25:04;3.95;;;2.45;;
72569;SDS011;60594;50.204;8.844;2023-06-14T09:27:32;3.72;;;2.17;;
72569;SDS011;60594;50.204;8.844;2023-06-14T09:29:58;3.70;;;2.22;;
72569;SDS011;60594;50.204;8.844;2023-06-14T09:32:25;4.00;;;2.33;;
72569;SDS011;60594;50.204;8.844;2023-06-14T09:34:51;5.13;;;2.42;;
72569;SDS011;60594;50.204;8.844;2023-06-14T09:37:31;4.03;;;2.38;;
72569;SDS011;60594;50.204;8.844;2023-06-14T09:39:59;6.25;;;2.25;;
72569;SDS011;60594;50.204;8.844;2023-06-14T09:42:26;5.72;;;2.75;;
72569;SDS011;60594;50.204;8.844;2023-06-14T09:47:21;5.53;;;2.80;;
72569;SDS011;60594;50.204;8.844;2023-06-14T09:49:48;4.22;;;2.50;;
72569;SDS011;60594;50.204;8.844;2023-06-14T09:52:19;4.68;;;2.60;;
72569;SDS011;60594;50.204;8.844;2023-06-14T09:54:47;4.60;;;2.58;;
72569;SDS011;60594;50.204;8.844;2023-06-14T09:57:21;5.47;;;2.97;;
72569;SDS011;60594;50.204;8.844;2023-06-14T09:59:51;4.43;;;2.75;;
72569;SDS011;60594;50.204;8.844;2023-06-14T10:04:55;4.65;;;2.53;;
72569;SDS011;60594;50.204;8.844;2023-06-14T10:07:27;4.13;;;2.50;;
72569;SDS011;60594;50.204;8.844;2023-06-14T10:09:59;4.03;;;2.40;;
72569;SDS011;60594;50.204;8.844;2023-06-14T10:14:52;4.32;;;3.05;;
72569;SDS011;60594;50.204;8.844;2023-06-14T10:17:22;4.55;;;2.45;;
72569;SDS011;60594;50.204;8.844;2023-06-14T10:22:56;4.93;;;2.28;;
72569;SDS011;60594;50.204;8.844;2023-06-14T10:25:28;4.57;;;2.40;;
72569;SDS011;60594;50.204;8.844;2023-06-14T10:28:02;4.03;;;2.38;;
72569;SDS011;60594;50.204;8.844;2023-06-14T10:30:34;4.38;;;2.15;;
72569;SDS011;60594;50.204;8.844;2023-06-14T10:33:07;4.18;;;2.55;;
72569;SDS011;60594;50.204;8.844;2023-06-14T10:35:34;4.38;;;2.53;;
72569;SDS011;60594;50.204;8.844;2023-06-14T10:38:11;4.22;;;2.30;;
72569;SDS011;60594;50.204;8.844;2023-06-14T10:40:38;4.38;;;2.38;;
72569;SDS011;60594;50.204;8.844;2023-06-14T10:43:26;4.68;;;2.70;;
72569;SDS011;60594;50.204;8.844;2023-06-14T10:48:41;3.92;;;2.30;;
72569;SDS011;60594;50.204;8.844;2023-06-14T10:51:15;3.30;;;1.92;;
72569;SDS011;60594;50.204;8.844;2023-06-14T10:53:47;3.30;;;2.20;;
72569;SDS011;60594;50.204;8.844;2023-06-14T11:01:35;4.25;;;2.00;;
72569;SDS011;60594;50.204;8.844;2023-06-14T11:04:09;3.88;;;2.10;;
72569;SDS011;60594;50.204;8.844;2023-06-14T11:12:11;5.53;;;2.20;;
72569;SDS011;60594;50.204;8.844;2023-06-14T11:14:39;3.30;;;1.90;;
72569;SDS011;60594;50.204;8.844;2023-06-14T11:17:06;3.78;;;2.20;;
72569;SDS011;60594;50.204;8.844;2023-06-14T11:19:32;3.40;;;1.63;;
72569;SDS011;60594;50.204;8.844;2023-06-14T11:21:59;4.07;;;2.65;;
72569;SDS011;60594;50.204;8.844;2023-06-14T11:24:25;3.55;;;2.20;;
72569;SDS011;60594;50.204;8.844;2023-06-14T11:26:52;4.07;;;2.10;;
72569;SDS011;60594;50.204;8.844;2023-06-14T11:29:19;4.82;;;2.60;;
72569;SDS011;60594;50.204;8.844;2023-06-14T11:31:46;4.90;;;2.83;;
72569;SDS011;60594;50.204;8.844;2023-06-14T11:34:13;3.88;;;2.28;;
72569;SDS011;60594;50.204;8.844;2023-06-14T11:36:39;5.43;;;2.53;;
72569;SDS011;60594;50.204;8.844;2023-06-14T11:39:06;4.60;;;2.55;;
72569;SDS011;60594;50.204;8.844;2023-06-14T11:41:36;4.10;;;2.47;;
72569;SDS011;60594;50.204;8.844;2023-06-14T11:44:04;3.80;;;2.20;;
72569;SDS011;60594;50.204;8.844;2023-06-14T11:46:32;4.22;;;2.50;;
72569;SDS011;60594;50.204;8.844;2023-06-14T11:48:58;4.35;;;2.90;;
72569;SDS011;60594;50.204;8.844;2023-06-14T11:51:25;5.70;;;2.83;;
72569;SDS011;60594;50.204;8.844;2023-06-14T11:53:51;3.67;;;2.35;;
72569;SDS011;60594;50.204;8.844;2023-06-14T11:56:18;5.32;;;2.67;;
72569;SDS011;60594;50.204;8.844;2023-06-14T11:58:45;4.50;;;3.10;;
72569;SDS011;60594;50.204;8.844;2023-06-14T12:01:18;3.80;;;2.50;;
72569;SDS011;60594;50.204;8.844;2023-06-14T12:03:48;4.30;;;2.60;;
72569;SDS011;60594;50.204;8.844;2023-06-14T12:06:16;4.28;;;2.50;;
72569;SDS011;60594;50.204;8.844;2023-06-14T12:08:51;4.10;;;2.70;;
72569;SDS011;60594;50.204;8.844;2023-06-14T12:11:22;4.40;;;2.60;;
72569;SDS011;60594;50.204;8.844;2023-06-14T12:13:48;3.70;;;2.22;;
72569;SDS011;60594;50.204;8.844;2023-06-14T12:16:15;4.05;;;2.85;;
72569;SDS011;60594;50.204;8.844;2023-06-14T12:18:41;4.93;;;2.45;;
72569;SDS011;60594;50.204;8.844;2023-06-14T12:21:09;4.20;;;2.58;;
72569;SDS011;60594;50.204;8.844;2023-06-14T12:23:47;4.13;;;2.55;;
72569;SDS011;60594;50.204;8.844;2023-06-14T12:26:17;5.25;;;2.63;;
72569;SDS011;60594;50.204;8.844;2023-06-14T12:28:46;4.10;;;2.53;;
72569;SDS011;60594;50.204;8.844;2023-06-14T12:31:13;4.35;;;2.55;;
72569;SDS011;60594;50.204;8.844;2023-06-14T12:33:41;3.67;;;2.22;;
72569;SDS011;60594;50.204;8.844;2023-06-14T12:36:08;4.45;;;2.63;;
72569;SDS011;60594;50.204;8.844;2023-06-14T12:38:36;4.90;;;2.40;;
72569;SDS011;60594;50.204;8.844;2023-06-14T12:41:03;5.47;;;2.78;;
72569;SDS011;60594;50.204;8.844;2023-06-14T12:43:30;3.80;;;2.40;;
72569;SDS011;60594;50.204;8.844;2023-06-14T12:45:57;4.68;;;2.50;;
72569;SDS011;60594;50.204;8.844;2023-06-14T12:48:23;5.20;;;2.78;;
72569;SDS011;60594;50.204;8.844;2023-06-14T12:50:49;4.30;;;2.60;;
72569;SDS011;60594;50.204;8.844;2023-06-14T12:53:16;5.00;;;2.42;;
72569;SDS011;60594;50.204;8.844;2023-06-14T12:55:43;4.13;;;2.58;;
72569;SDS011;60594;50.204;8.844;2023-06-14T12:58:09;4.13;;;2.50;;
72569;SDS011;60594;50.204;8.844;2023-06-14T13:00:38;4.38;;;2.22;;
72569;SDS011;60594;50.204;8.844;2023-06-14T13:03:05;4.03;;;2.58;;
72569;SDS011;60594;50.204;8.844;2023-06-14T13:05:31;4.15;;;2.60;;
72569;SDS011;60594;50.204;8.844;2023-06-14T13:08:00;5.47;;;2.83;;
72569;SDS011;60594;50.204;8.844;2023-06-14T13:10:26;3.67;;;2.22;;
72569;SDS011;60594;50.204;8.844;2023-06-14T13:12:54;5.18;;;3.42;;
72569;SDS011;60594;50.204;8.844;2023-06-14T13:15:20;5.15;;;2.45;;
72569;SDS011;60594;50.204;8.844;2023-06-14T13:17:47;3.90;;;2.28;;
72569;SDS011;60594;50.204;8.844;2023-06-14T13:20:14;3.83;;;2.22;;
72569;SDS011;60594;50.204;8.844;2023-06-14T13:22:42;3.92;;;2.47;;
72569;SDS011;60594;50.204;8.844;2023-06-14T13:25:09;4.75;;;3.03;;
72569;SDS011;60594;50.204;8.844;2023-06-14T13:27:36;3.65;;;2.33;;
72569;SDS011;60594;50.204;8.844;2023-06-14T13:30:03;4.18;;;2.60;;
72569;SDS011;60594;50.204;8.844;2023-06-14T13:32:31;3.90;;;2.42;;
72569;SDS011;60594;50.204;8.844;2023-06-14T13:34:58;4.35;;;2.40;;
72569;SDS011;60594;50.204;8.844;2023-06-14T13:37:24;3.95;;;2.40;;
72569;SDS011;60594;50.204;8.844;2023-06-14T13:39:50;3.70;;;2.20;;
72569;SDS011;60594;50.204;8.844;2023-06-14T13:42:17;3.85;;;2.33;;
72569;SDS011;60594;50.204;8.844;2023-06-14T13:44:44;4.45;;;2.35;;
72569;SDS011;60594;50.204;8.844;2023-06-14T13:47:10;4.30;;;2.92;;
72569;SDS011;60594;50.204;8.844;2023-06-14T13:49:37;6.78;;;2.88;;
72569;SDS011;60594;50.204;8.844;2023-06-14T13:52:03;3.83;;;2.40;;
72569;SDS011;60594;50.204;8.844;2023-06-14T13:54:30;4.65;;;2.80;;
72569;SDS011;60594;50.204;8.844;2023-06-14T13:56:57;4.53;;;2.33;;
72569;SDS011;60594;50.204;8.844;2023-06-14T13:59:23;5.15;;;2.50;;
72569;SDS011;60594;50.204;8.844;2023-06-14T14:01:50;3.85;;;2.20;;
72569;SDS011;60594;50.204;8.844;2023-06-14T14:04:17;4.68;;;2.50;;
72569;SDS011;60594;50.204;8.844;2023-06-14T14:06:43;4.10;;;2.53;;
72569;SDS011;60594;50.204;8.844;2023-06-14T14:09:10;4.65;;;2.60;;
72569;SDS011;60594;50.204;8.844;2023-06-14T14:11:37;4.32;;;2.38;;
72569;SDS011;60594;50.204;8.844;2023-06-14T14:14:04;5.35;;;2.50;;
72569;SDS011;60594;50.204;8.844;2023-06-14T14:16:31;4.55;;;2.45;;
72569;SDS011;60594;50.204;8.844;2023-06-14T14:18:57;5.13;;;2.75;;
72569;SDS011;60594;50.204;8.844;2023-06-14T14:21:24;4.90;;;2.40;;
72569;SDS011;60594;50.204;8.844;2023-06-14T14:23:50;3.60;;;2.20;;
72569;SDS011;60594;50.204;8.844;2023-06-14T14:26:17;3.80;;;2.40;;
72569;SDS011;60594;50.204;8.844;2023-06-14T14:28:44;6.95;;;2.60;;
72569;SDS011;60594;50.204;8.844;2023-06-14T14:31:10;3.90;;;2.42;;
72569;SDS011;60594;50.204;8.844;2023-06-14T14:33:36;5.85;;;2.50;;
72569;SDS011;60594;50.204;8.844;2023-06-14T14:36:03;4.95;;;2.30;;
72569;SDS011;60594;50.204;8.844;2023-06-14T14:38:30;4.47;;;2.40;;
72569;SDS011;60594;50.204;8.844;2023-06-14T14:40:57;4.35;;;2.70;;
72569;SDS011;60594;50.204;8.844;2023-06-14T14:43:23;4.60;;;2.25;;
72569;SDS011;60594;50.204;8.844;2023-06-14T14:45:50;4.80;;;2.60;;
72569;SDS011;60594;50.204;8.844;2023-06-14T14:48:16;4.72;;;2.72;;
72569;SDS011;60594;50.204;8.844;2023-06-14T14:50:43;5.32;;;2.90;;
72569;SDS011;60594;50.204;8.844;2023-06-14T14:53:09;5.50;;;2.85;;
72569;SDS011;60594;50.204;8.844;2023-06-14T14:55:36;4.97;;;2.58;;
72569;SDS011;60594;50.204;8.844;2023-06-14T14:58:03;4.88;;;2.60;;
72569;SDS011;60594;50.204;8.844;2023-06-14T15:00:30;4.72;;;2.60;;
72569;SDS011;60594;50.204;8.844;2023-06-14T15:02:56;3.80;;;2.42;;
72569;SDS011;60594;50.204;8.844;2023-06-14T15:05:23;4.93;;;2.70;;
72569;SDS011;60594;50.204;8.844;2023-06-14T15:07:49;4.47;;;2.65;;
72569;SDS011;60594;50.204;8.844;2023-06-14T15:10:15;3.88;;;2.65;;
72569;SDS011;60594;50.204;8.844;2023-06-14T15:12:42;4.43;;;2.80;;
72569;SDS011;60594;50.204;8.844;2023-06-14T15:15:09;3.80;;;2.72;;
72569;SDS011;60594;50.204;8.844;2023-06-14T15:17:35;4.05;;;2.70;;
72569;SDS011;60594;50.204;8.844;2023-06-14T15:20:02;3.72;;;2.50;;
72569;SDS011;60594;50.204;8.844;2023-06-14T15:22:30;4.70;;;2.85;;
72569;SDS011;60594;50.204;8.844;2023-06-14T15:24:56;5.35;;;3.10;;